Latest Weather Observations for Rhyll

IDV60901

Issued at 6:21 pm EST Thursday 9 April 2020 (issued every 10 minutes, with the page automatically refreshed every 10 minutes)

About weather observations | Map of Melbourne area stations | Latest observations for Melbourne area | Other Formats
Station Details ID: 086373 Name: RHYLL Lat: -38.46 Lon: 145.31 Height: 13.4 m
Data from the previous 72 hours. | See also: Recent months at Rhyll
Date/Time
EST
Temp
°C
App
Temp
°C
Dew
Point
°C
Rel
Hum
%
Delta-T
°C
Wind Press
QNH
hPa
Press
MSL
hPa
Rain since
9am
mm
Dir  Spd
km/h
Gust
km/h
Spd
kts
Gust
kts
09/06:00pm 17.4 18.0 11.9 70 3.0 CALM 0 2 0 1 1022.9 1022.9 0.0
09/05:30pm 18.3 18.3 12.3 68 3.3 SSW 4 7 2 4 1022.8 1022.8 0.0
09/05:00pm 19.9 20.8 12.9 64 3.9 CALM 0 4 0 2 1022.9 1022.9 0.0
09/04:30pm 20.2 20.8 11.9 59 4.6 CALM 0 0 0 0 1023.1 1023.1 0.0
09/04:00pm 20.3 20.7 11.2 56 5.0 CALM 0 0 0 0 1023.3 1023.3 0.0
09/03:30pm 20.4 20.9 11.6 57 4.9 CALM 0 0 0 0 1023.6 1023.6 0.0
09/03:00pm 20.6 20.9 12.1 58 4.7 SSE 2 2 1 1 1023.6 1023.6 0.0
09/02:30pm 20.8 21.5 12.2 58 4.8 CALM 0 0 0 0 1023.8 1023.8 0.0
09/02:00pm 20.9 21.6 12.1 57 4.9 CALM 0 0 0 0 1023.9 1023.9 0.0
09/01:30pm 21.0 21.9 12.9 60 4.6 CALM 0 2 0 1 1024.3 1024.3 0.0
09/01:00pm 20.6 20.6 13.6 64 4.0 ENE 6 7 3 4 1025.1 1025.1 0.0
09/12:30pm 21.5 21.1 14.2 63 4.3 E 9 11 5 6 1025.6 1025.6 0.0
09/12:00pm 21.1 20.2 13.8 63 4.2 E 11 15 6 8 1026.1 1026.1 0.0
09/11:30am 20.6 18.6 13.8 65 3.9 E 17 20 9 11 1026.4 1026.4 0.0
09/11:00am 20.5 18.9 13.9 66 3.8 E 15 20 8 11 1026.9 1026.9 0.0
09/10:30am 20.2 18.2 13.9 67 3.6 E 17 19 9 10 1027.2 1027.2 0.0
09/10:00am 18.9 16.1 13.3 70 3.2 E 20 24 11 13 1027.3 1027.3 0.0
09/09:30am 18.6 15.7 13.0 70 3.2 E 20 22 11 12 1027.6 1027.6 0.0
09/09:00am 18.1 15.5 13.2 73 2.7 E 19 22 10 12 1027.9 1027.9 0.2
09/08:30am 16.6 14.6 12.6 77 2.2 ESE 15 20 8 11 1027.8 1027.8 0.2
09/08:00am 15.4 12.3 12.2 81 1.7 ESE 20 24 11 13 1027.6 1027.6 0.2
09/07:30am 14.7 10.4 12.0 84 1.5 ESE 26 30 14 16 1027.4 1027.4 0.2
09/07:00am 13.9 9.8 11.6 86 1.2 SE 24 28 13 15 1027.1 1027.1 0.2
09/06:30am 13.9 9.8 11.6 86 1.2 ESE 24 28 13 15 1027.1 1027.1 0.2
09/06:00am 14.0 10.0 11.7 86 1.2 ESE 24 28 13 15 1027.0 1027.0 0.2
09/05:30am 14.1 10.1 11.8 86 1.2 ESE 24 28 13 15 1027.1 1027.1 0.2
09/05:00am 14.3 9.9 11.8 85 1.3 ESE 26 32 14 17 1026.9 1026.9 0.2
09/04:30am 14.3 9.9 11.8 85 1.3 ESE 26 30 14 16 1026.9 1026.9 0.2
09/04:00am 14.3 9.9 11.8 85 1.3 ESE 26 30 14 16 1027.0 1027.0 0.2
09/03:30am 14.2 10.9 11.5 84 1.4 SE 20 24 11 13 1027.1 1027.1 0.2
09/03:00am 14.1 11.4 11.6 85 1.3 SE 17 22 9 12 1027.3 1027.3 0.2
09/02:30am 14.1 11.4 11.8 86 1.2 SE 17 22 9 12 1027.4 1027.4 0.2
09/02:00am 14.1 10.8 11.6 85 1.3 SE 20 26 11 14 1027.4 1027.4 0.2
09/01:30am 14.1 9.7 11.6 85 1.3 ESE 26 30 14 16 1027.4 1027.4 0.2
09/01:00am 14.1 10.0 11.6 85 1.3 SE 24 30 13 16 1027.5 1027.5 0.2
09/12:30am 14.2 9.8 11.7 85 1.3 SE 26 33 14 18 1027.2 1027.2 0.2
09/12:00am 14.2 10.9 11.7 85 1.3 SE 20 26 11 14 1027.3 1027.3 0.2
 
Date/Time
EST
Temp
°C
App
Temp
°C
Dew
Point
°C
Rel
Hum
%
Delta-T
°C
Wind Press
QNH
hPa
Press
MSL
hPa
Rain since
9am
mm
Dir  Spd
km/h
Gust
km/h
Spd
kts
Gust
kts
08/11:30pm 14.2 10.5 11.5 84 1.4 SE 22 28 12 15 1027.5 1027.5 0.2
08/11:00pm 14.2 9.0 11.5 84 1.4 ESE 30 35 16 19 1027.5 1027.5 0.2
08/10:30pm 14.4 9.2 11.7 84 1.4 ESE 30 37 16 20 1027.6 1027.6 0.2
08/10:00pm 14.4 9.2 11.7 84 1.4 ESE 30 35 16 19 1027.4 1027.4 0.2
08/09:30pm 14.5 8.8 11.7 83 1.5 ESE 33 41 18 22 1027.2 1027.2 0.2
08/09:00pm 14.5 8.9 11.5 82 1.6 ESE 32 39 17 21 1027.1 1027.1 0.2
08/08:30pm 14.5 8.4 11.7 83 1.5 ESE 35 39 19 21 1026.8 1026.8 0.2
08/08:00pm 14.6 8.5 11.7 83 1.5 ESE 35 43 19 23 1026.4 1026.4 0.2
08/07:30pm 14.8 9.2 11.4 80 1.8 ESE 32 39 17 21 1026.1 1026.1 0.2
08/07:00pm 15.1 10.3 11.5 79 1.9 ESE 28 33 15 18 1025.8 1025.8 0.2
08/06:30pm 15.4 10.5 11.4 77 2.1 ESE 28 33 15 18 1025.4 1025.4 0.2
08/06:00pm 16.1 10.4 11.7 75 2.4 ESE 33 39 18 21 1025.2 1025.2 0.2
08/05:30pm 16.5 12.4 11.4 72 2.8 SE 24 32 13 17 1025.0 1025.0 0.2
08/05:00pm 16.6 13.2 12.4 76 2.3 SE 22 33 12 18 1024.7 1024.7 0.2
08/04:30pm 16.9 13.7 12.0 73 2.7 SSE 20 30 11 16 1024.5 1024.5 0.2
08/04:00pm 17.5 14.5 11.8 69 3.1 SSE 19 26 10 14 1024.5 1024.5 0.2
08/03:30pm 16.9 13.9 11.8 72 2.8 SSE 19 24 10 13 1024.4 1024.4 0.2
08/03:00pm 16.7 13.2 11.0 69 3.0 SSE 20 26 11 14 1024.4 1024.4 0.2
08/02:30pm 18.7 16.9 12.2 66 3.6 S 13 19 7 10 1024.3 1024.3 0.2
08/02:00pm 19.3 17.9 12.3 64 3.9 S 11 17 6 9 1024.4 1024.4 0.2
08/01:30pm 18.5 17.7 11.8 65 3.7 S 7 11 4 6 1024.5 1024.5 0.2
08/01:00pm 17.8 16.4 10.9 64 3.7 SSE 9 15 5 8 1024.8 1024.8 0.2
08/12:30pm 17.0 17.2 10.6 66 3.4 CALM 0 0 0 0 1025.2 1025.2 0.2
08/12:00pm 19.0 19.5 12.7 67 3.5 ENE 2 6 1 3 1025.5 1025.5 0.2
08/11:30am 17.9 18.3 12.4 70 3.1 ESE 2 4 1 2 1025.6 1025.6 0.0
08/11:00am 16.9 17.3 12.4 75 2.5 ESE 2 7 1 4 1025.6 1025.6 0.0
08/10:30am 14.8 14.0 11.0 78 2.0 NNW 6 7 3 4 1025.6 1025.6 0.0
08/10:00am 14.9 14.2 11.5 80 1.8 NNW 6 9 3 5 1025.4 1025.4 0.0
08/09:30am 14.1 14.2 11.6 85 1.3 NNE 2 4 1 2 1025.4 1025.4 0.0
08/09:00am 13.8 14.2 11.1 84 1.4 CALM 0 4 0 2 1025.1 1025.1 1.0
08/08:30am 13.6 12.8 11.1 85 1.3 NE 6 9 3 5 1024.8 1024.8 1.0
08/08:00am 13.5 12.6 11.2 86 1.2 NE 7 11 4 6 1024.4 1024.4 1.0
08/07:30am 13.3 12.9 11.2 87 1.1 NE 4 7 2 4 1024.0 1024.0 1.0
08/07:00am 13.2 12.7 10.9 86 1.2 NNE 4 7 2 4 1023.7 1023.7 1.0
08/06:30am 13.3 12.2 10.8 85 1.3 E 7 11 4 6 1023.4 1023.4 1.0
08/06:00am 13.3 12.8 10.7 84 1.4 SSW 4 6 2 3 1023.2 1023.2 1.0
08/05:30am 13.3 12.2 10.7 84 1.4 SSW 7 13 4 7 1023.0 1023.0 1.0
08/05:00am 12.9 11.1 11.0 88 1.0 SSE 11 17 6 9 1022.7 1022.7 1.0
08/04:30am 13.1 11.8 11.2 88 1.0 SSE 9 17 5 9 1022.6 1022.6 1.0
08/04:00am 12.8 12.4 11.0 89 0.9 SE 4 7 2 4 1022.3 1022.3 1.0
08/03:30am 12.9 11.9 11.0 88 1.0 SE 7 13 4 7 1022.5 1022.5 1.0
08/03:00am 13.0 12.0 11.1 88 1.0 ESE 7 9 4 5 1022.7 1022.7 1.0
08/02:30am 13.1 12.2 10.8 86 1.2 E 6 13 3 7 1022.9 1022.9 1.0
08/02:00am 13.2 11.7 10.7 85 1.3 E 9 11 5 6 1023.1 1023.1 0.8
08/01:30am 13.8 12.6 10.4 80 1.8 S 7 13 4 7 1023.2 1023.2 0.8
08/01:00am 13.3 11.9 9.5 78 1.9 S 7 13 4 7 1023.2 1023.2 0.8
08/12:30am 13.3 11.6 9.7 79 1.8 SW 9 17 5 9 1023.2 1023.2 0.8
08/12:00am 13.7 12.3 9.6 76 2.1 SSW 7 13 4 7 1023.2 1023.2 0.8
 
Date/Time
EST
Temp
°C
App
Temp
°C
Dew
Point
°C
Rel
Hum
%
Delta-T
°C
Wind Press
QNH
hPa
Press
MSL
hPa
Rain since
9am
mm
Dir  Spd
km/h
Gust
km/h
Spd
kts
Gust
kts
07/11:30pm 13.6 11.8 9.6 77 2.0 SSW 9 15 5 8 1023.2 1023.2 0.8
07/11:00pm 12.8 11.6 9.4 80 1.7 SW 6 6 3 3 1023.4 1023.4 0.8
07/10:30pm 12.7 11.5 9.7 82 1.5 WSW 6 7 3 4 1023.6 1023.6 0.8
07/10:00pm 12.3 11.1 9.5 83 1.4 W 6 6 3 3 1023.6 1023.6 0.8
07/09:30pm 12.3 11.3 9.0 80 1.7 W 4 6 2 3 1023.6 1023.6 0.8
07/09:00pm 12.5 11.9 9.0 79 1.7 WSW 2 4 1 2 1023.6 1023.6 0.8
07/08:30pm 12.7 11.4 9.2 79 1.8 SW 6 9 3 5 1023.7 1023.7 0.8
07/08:00pm 12.6 11.3 9.2 80 1.7 WSW 6 11 3 6 1023.6 1023.6 0.8
07/07:30pm 12.4 11.1 9.1 80 1.7 SW 6 9 3 5 1023.4 1023.4 0.8
07/07:00pm 12.6 10.8 9.6 82 1.5 SSW 9 15 5 8 1023.3 1023.3 0.8
07/06:30pm 12.9 11.5 9.0 77 2.0 SW 6 7 3 4 1023.1 1023.1 0.6
07/06:00pm 12.9 11.5 9.0 77 2.0 SW 6 9 3 5 1022.9 1022.9 0.6
07/05:30pm 13.1 10.9 9.4 78 1.9 SSW 11 19 6 10 1022.6 1022.6 0.6
07/05:00pm 13.5 11.6 9.2 75 2.2 SSW 9 17 5 9 1022.5 1022.5 0.6
07/04:30pm 13.3 12.0 10.1 81 1.7 S 7 11 4 6 1022.5 1022.5 0.6
07/04:00pm - - - - - SW 9 17 5 9 1022.8 1022.8 0.6
07/03:30pm 12.8 11.9 10.5 86 1.2 WSW 6 7 3 4 1022.9 1022.9 0.6
07/03:00pm 13.7 10.9 10.1 79 1.9 SSW 15 24 8 13 1023.0 1023.0 0.0
07/02:30pm 14.7 12.3 8.6 67 3.1 SSW 11 20 6 11 1023.0 1023.0 0.0
07/02:00pm 14.2 11.1 8.8 70 2.7 SW 15 24 8 13 1023.2 1023.2 0.0
07/01:30pm 14.8 12.3 9.6 71 2.7 SSW 13 22 7 12 1023.4 1023.4 0.0
07/01:00pm 15.1 12.7 8.6 65 3.3 SSW 11 19 6 10 1023.7 1023.7 0.0
07/12:30pm 15.3 12.9 9.9 70 2.8 SSW 13 22 7 12 1024.1 1024.1 0.0
07/12:00pm 14.7 13.2 9.1 69 2.8 SSW 7 13 4 7 1024.4 1024.4 0.0
07/11:30am 14.8 14.5 8.7 67 3.1 CALM 0 4 0 2 1024.4 1024.4 0.0
07/11:00am 14.9 14.8 9.3 69 2.9 CALM 0 2 0 1 1024.5 1024.5 0.0
07/10:30am 13.9 13.7 9.1 73 2.4 CALM 0 4 0 2 1024.7 1024.7 0.0
07/10:00am 13.6 13.0 9.1 74 2.3 N 2 6 1 3 1024.6 1024.6 0.0
07/09:30am 13.2 12.3 9.3 77 2.0 N 4 6 2 3 1024.6 1024.6 0.0
07/09:00am 13.2 12.4 9.6 79 1.8 NNE 4 7 2 4 1024.4 1024.4 0.0
07/08:30am 13.3 12.1 9.7 79 1.8 N 6 9 3 5 1024.2 1024.2 0.0
07/08:00am 13.0 11.7 9.8 81 1.6 NE 7 11 4 6 1023.9 1023.9 0.0
07/07:30am 12.8 12.0 9.8 82 1.5 NE 4 7 2 4 1023.7 1023.7 0.0
07/07:00am 12.7 11.9 9.7 82 1.5 NNE 4 7 2 4 1023.4 1023.4 0.0
07/06:30am 12.8 12.0 9.8 82 1.5 NNE 4 6 2 3 1023.3 1023.3 0.0
07/06:00am 12.9 12.1 9.7 81 1.6 NNE 4 7 2 4 1023.2 1023.2 0.0
07/05:30am 12.9 11.5 9.4 79 1.8 NE 7 11 4 6 1022.9 1022.9 0.0
07/05:00am 13.3 11.8 9.0 75 2.2 ENE 7 13 4 7 1022.9 1022.9 0.0
07/04:30am 13.2 11.6 6.5 64 3.2 SSW 4 7 2 4 1022.8 1022.8 0.0
07/04:00am 13.1 11.7 7.3 68 2.8 WSW 4 6 2 3 1022.7 1022.7 0.0
07/03:30am 12.9 11.2 7.6 70 2.6 W 6 7 3 4 1022.8 1022.8 0.0
07/03:00am 12.9 11.2 7.6 70 2.6 W 6 7 3 4 1023.0 1023.0 0.0
07/02:30am 12.9 11.3 7.8 71 2.5 WSW 6 7 3 4 1023.1 1023.1 0.0
07/02:00am 13.0 11.4 7.9 71 2.5 WSW 6 13 3 7 1023.3 1023.3 0.0
07/01:30am 12.8 11.1 8.3 74 2.2 WSW 7 9 4 5 1023.4 1023.4 0.0
07/01:00am 13.2 11.6 7.9 70 2.6 WSW 6 9 3 5 1023.4 1023.4 0.0
07/12:30am 13.0 11.1 7.5 69 2.7 SW 7 11 4 6 1023.5 1023.5 0.0
07/12:00am 13.0 11.4 8.1 72 2.4 SW 6 9 3 5 1023.5 1023.5 0.0
 
Date/Time
EST
Temp
°C
App
Temp
°C
Dew
Point
°C
Rel
Hum
%
Delta-T
°C
Wind Press
QNH
hPa
Press
MSL
hPa
Rain since
9am
mm
Dir  Spd
km/h
Gust
km/h
Spd
kts
Gust
kts
06/11:30pm 13.3 11.3 8.8 74 2.3 SSW 9 17 5 9 1023.6 1023.6 0.0
06/11:00pm 13.1 10.8 9.0 76 2.1 SSW 11 20 6 11 1023.7 1023.7 0.0
06/10:30pm 12.4 10.8 8.1 75 2.1 W 6 7 3 4 1023.8 1023.8 0.0
06/10:00pm 12.5 10.9 7.8 73 2.3 WNW 6 9 3 5 1023.8 1023.8 0.0
06/09:30pm 12.4 10.7 7.5 72 2.4 W 6 9 3 5 1023.8 1023.8 0.0
06/09:00pm 12.2 10.3 7.5 73 2.3 W 7 9 4 5 1023.8 1023.8 0.0
06/08:30pm - - - - - W 9 17 5 9 1023.7 1023.7 0.0
06/08:00pm - - - - - WSW 7 11 4 6 1023.3 1023.3 0.0
06/07:30pm - - - - - SSW 11 26 6 14 1023.3 1023.3 0.0
06/07:00pm - - - - - W 6 7 3 4 1023.0 1023.0 0.0
06/06:30pm - - - - - WSW 7 13 4 7 1022.7 1022.7 0.0

Latest Capital City Observations: Canberra | Sydney | Melbourne | Brisbane | Adelaide | Perth | Hobart | Darwin

Other formats

Comma delimited format used in spreadsheet applications
http://www.bom.gov.au/fwo/IDV60901/IDV60901.94892.axf

JavaScript Object Notation format (JSON) in row-major order
http://www.bom.gov.au/fwo/IDV60901/IDV60901.94892.json

Data quality

Most of these data are generated automatically and are frequently updated. Quality checks on data are not normally performed. It is possible for incorrect values to appear. Refer to information at About Latest Weather Observations and please check the disclaimer before using these data.